sensor_id;sensor_type;location;lat;lon;timestamp;P1;durP1;ratioP1;P2;durP2;ratioP2
67248;SDS011;63247;54.300;18.592;2023-04-29T00:00:32;20.73;;;9.03;;
67248;SDS011;63247;54.300;18.592;2023-04-29T00:02:57;18.65;;;7.75;;
67248;SDS011;63247;54.300;18.592;2023-04-29T00:05:22;16.70;;;7.13;;
67248;SDS011;63247;54.300;18.592;2023-04-29T00:07:48;19.03;;;8.10;;
67248;SDS011;63247;54.300;18.592;2023-04-29T00:10:13;20.13;;;8.80;;
67248;SDS011;63247;54.300;18.592;2023-04-29T00:12:39;19.27;;;8.23;;
67248;SDS011;63247;54.300;18.592;2023-04-29T00:15:06;23.42;;;10.23;;
67248;SDS011;63247;54.300;18.592;2023-04-29T00:17:33;25.50;;;10.73;;
67248;SDS011;63247;54.300;18.592;2023-04-29T00:19:58;22.00;;;9.20;;
67248;SDS011;63247;54.300;18.592;2023-04-29T00:22:23;18.70;;;7.40;;
67248;SDS011;63247;54.300;18.592;2023-04-29T00:24:49;20.83;;;7.40;;
67248;SDS011;63247;54.300;18.592;2023-04-29T00:27:15;21.60;;;7.40;;
67248;SDS011;63247;54.300;18.592;2023-04-29T00:29:41;17.75;;;7.93;;
67248;SDS011;63247;54.300;18.592;2023-04-29T00:32:07;19.83;;;8.90;;
67248;SDS011;63247;54.300;18.592;2023-04-29T00:34:32;19.85;;;8.50;;
67248;SDS011;63247;54.300;18.592;2023-04-29T00:36:58;24.77;;;10.27;;
67248;SDS011;63247;54.300;18.592;2023-04-29T00:39:23;17.97;;;7.90;;
67248;SDS011;63247;54.300;18.592;2023-04-29T00:41:49;20.33;;;7.60;;
67248;SDS011;63247;54.300;18.592;2023-04-29T00:44:14;19.10;;;7.70;;
67248;SDS011;63247;54.300;18.592;2023-04-29T00:46:40;20.20;;;8.20;;
67248;SDS011;63247;54.300;18.592;2023-04-29T00:49:05;20.10;;;8.00;;
67248;SDS011;63247;54.300;18.592;2023-04-29T00:51:32;19.93;;;7.13;;
67248;SDS011;63247;54.300;18.592;2023-04-29T00:53:58;17.92;;;7.68;;
67248;SDS011;63247;54.300;18.592;2023-04-29T00:56:23;19.30;;;7.22;;
67248;SDS011;63247;54.300;18.592;2023-04-29T00:58:49;16.37;;;7.33;;
67248;SDS011;63247;54.300;18.592;2023-04-29T01:01:16;19.40;;;7.85;;
67248;SDS011;63247;54.300;18.592;2023-04-29T01:03:45;16.55;;;7.47;;
67248;SDS011;63247;54.300;18.592;2023-04-29T01:11:29;19.67;;;7.25;;
67248;SDS011;63247;54.300;18.592;2023-04-29T01:13:59;17.55;;;7.60;;
67248;SDS011;63247;54.300;18.592;2023-04-29T01:16:28;16.73;;;7.50;;
67248;SDS011;63247;54.300;18.592;2023-04-29T01:19:01;16.45;;;7.63;;
67248;SDS011;63247;54.300;18.592;2023-04-29T01:21:46;17.17;;;7.60;;
67248;SDS011;63247;54.300;18.592;2023-04-29T01:24:15;16.08;;;7.53;;
67248;SDS011;63247;54.300;18.592;2023-04-29T01:26:45;16.10;;;7.30;;
67248;SDS011;63247;54.300;18.592;2023-04-29T01:32:10;20.73;;;7.78;;
67248;SDS011;63247;54.300;18.592;2023-04-29T01:34:48;22.17;;;7.45;;
67248;SDS011;63247;54.300;18.592;2023-04-29T01:40:13;17.60;;;7.47;;
67248;SDS011;63247;54.300;18.592;2023-04-29T01:42:45;21.15;;;9.32;;
67248;SDS011;63247;54.300;18.592;2023-04-29T01:45:15;19.23;;;8.52;;
67248;SDS011;63247;54.300;18.592;2023-04-29T01:47:44;25.63;;;11.50;;
67248;SDS011;63247;54.300;18.592;2023-04-29T01:50:11;44.22;;;14.88;;
67248;SDS011;63247;54.300;18.592;2023-04-29T01:52:36;33.63;;;11.83;;
67248;SDS011;63247;54.300;18.592;2023-04-29T01:55:02;24.07;;;9.60;;
67248;SDS011;63247;54.300;18.592;2023-04-29T01:57:28;20.58;;;7.47;;
67248;SDS011;63247;54.300;18.592;2023-04-29T01:59:53;19.97;;;7.80;;
67248;SDS011;63247;54.300;18.592;2023-04-29T02:02:19;15.13;;;7.33;;
67248;SDS011;63247;54.300;18.592;2023-04-29T02:04:47;16.23;;;7.70;;
67248;SDS011;63247;54.300;18.592;2023-04-29T02:07:13;18.85;;;7.70;;
67248;SDS011;63247;54.300;18.592;2023-04-29T02:09:39;17.83;;;7.55;;
67248;SDS011;63247;54.300;18.592;2023-04-29T02:12:04;15.30;;;7.20;;
67248;SDS011;63247;54.300;18.592;2023-04-29T02:14:30;16.80;;;7.23;;
67248;SDS011;63247;54.300;18.592;2023-04-29T02:16:55;18.57;;;7.20;;
67248;SDS011;63247;54.300;18.592;2023-04-29T02:19:21;18.83;;;8.20;;
67248;SDS011;63247;54.300;18.592;2023-04-29T02:21:46;16.23;;;6.65;;
67248;SDS011;63247;54.300;18.592;2023-04-29T02:24:12;18.17;;;7.30;;
67248;SDS011;63247;54.300;18.592;2023-04-29T02:26:37;20.27;;;7.07;;
67248;SDS011;63247;54.300;18.592;2023-04-29T02:29:02;16.23;;;7.33;;
67248;SDS011;63247;54.300;18.592;2023-04-29T02:31:28;19.10;;;7.20;;
67248;SDS011;63247;54.300;18.592;2023-04-29T02:33:53;19.90;;;7.07;;
67248;SDS011;63247;54.300;18.592;2023-04-29T02:36:19;19.07;;;8.17;;
67248;SDS011;63247;54.300;18.592;2023-04-29T02:38:45;16.33;;;6.60;;
67248;SDS011;63247;54.300;18.592;2023-04-29T02:41:14;19.38;;;7.93;;
67248;SDS011;63247;54.300;18.592;2023-04-29T02:43:41;19.47;;;7.10;;
67248;SDS011;63247;54.300;18.592;2023-04-29T02:46:07;14.88;;;6.28;;
67248;SDS011;63247;54.300;18.592;2023-04-29T02:48:33;14.47;;;6.33;;
67248;SDS011;63247;54.300;18.592;2023-04-29T02:50:58;14.68;;;6.38;;
67248;SDS011;63247;54.300;18.592;2023-04-29T02:53:24;17.63;;;7.07;;
67248;SDS011;63247;54.300;18.592;2023-04-29T02:55:49;15.07;;;6.90;;
67248;SDS011;63247;54.300;18.592;2023-04-29T02:58:15;14.43;;;6.53;;
67248;SDS011;63247;54.300;18.592;2023-04-29T03:00:40;15.05;;;6.72;;
67248;SDS011;63247;54.300;18.592;2023-04-29T03:03:06;17.20;;;6.40;;
67248;SDS011;63247;54.300;18.592;2023-04-29T03:05:31;16.73;;;6.57;;
67248;SDS011;63247;54.300;18.592;2023-04-29T03:07:57;17.73;;;6.60;;
67248;SDS011;63247;54.300;18.592;2023-04-29T03:10:22;17.42;;;6.43;;
67248;SDS011;63247;54.300;18.592;2023-04-29T03:12:47;17.70;;;6.70;;
67248;SDS011;63247;54.300;18.592;2023-04-29T03:15:13;17.70;;;6.57;;
67248;SDS011;63247;54.300;18.592;2023-04-29T03:17:39;15.18;;;7.30;;
67248;SDS011;63247;54.300;18.592;2023-04-29T03:20:05;15.40;;;6.50;;
67248;SDS011;63247;54.300;18.592;2023-04-29T03:22:31;13.93;;;6.53;;
67248;SDS011;63247;54.300;18.592;2023-04-29T03:24:57;14.33;;;6.10;;
67248;SDS011;63247;54.300;18.592;2023-04-29T03:27:22;13.60;;;6.30;;
67248;SDS011;63247;54.300;18.592;2023-04-29T03:29:48;13.73;;;6.72;;
67248;SDS011;63247;54.300;18.592;2023-04-29T03:32:13;17.57;;;7.33;;
67248;SDS011;63247;54.300;18.592;2023-04-29T03:34:39;18.67;;;7.17;;
67248;SDS011;63247;54.300;18.592;2023-04-29T03:37:04;16.17;;;7.30;;
67248;SDS011;63247;54.300;18.592;2023-04-29T03:39:30;16.25;;;7.10;;
67248;SDS011;63247;54.300;18.592;2023-04-29T03:41:56;17.63;;;6.93;;
67248;SDS011;63247;54.300;18.592;2023-04-29T03:44:23;17.58;;;6.65;;
67248;SDS011;63247;54.300;18.592;2023-04-29T03:46:49;16.42;;;6.68;;
67248;SDS011;63247;54.300;18.592;2023-04-29T03:49:14;13.87;;;6.27;;
67248;SDS011;63247;54.300;18.592;2023-04-29T03:51:40;19.50;;;7.37;;
67248;SDS011;63247;54.300;18.592;2023-04-29T03:54:05;17.98;;;7.07;;
67248;SDS011;63247;54.300;18.592;2023-04-29T03:56:32;14.85;;;6.40;;
67248;SDS011;63247;54.300;18.592;2023-04-29T03:58:57;13.88;;;5.40;;
67248;SDS011;63247;54.300;18.592;2023-04-29T04:01:25;12.48;;;5.38;;
67248;SDS011;63247;54.300;18.592;2023-04-29T04:03:50;13.63;;;6.00;;
67248;SDS011;63247;54.300;18.592;2023-04-29T04:06:16;15.05;;;5.78;;
67248;SDS011;63247;54.300;18.592;2023-04-29T04:08:41;15.33;;;6.03;;
67248;SDS011;63247;54.300;18.592;2023-04-29T04:11:07;15.63;;;5.97;;
67248;SDS011;63247;54.300;18.592;2023-04-29T04:13:33;13.75;;;6.00;;
67248;SDS011;63247;54.300;18.592;2023-04-29T04:15:59;15.03;;;6.37;;
67248;SDS011;63247;54.300;18.592;2023-04-29T04:18:24;16.13;;;6.13;;
67248;SDS011;63247;54.300;18.592;2023-04-29T04:20:50;15.87;;;6.20;;
67248;SDS011;63247;54.300;18.592;2023-04-29T04:23:15;16.00;;;6.93;;
67248;SDS011;63247;54.300;18.592;2023-04-29T04:25:47;16.37;;;7.20;;
67248;SDS011;63247;54.300;18.592;2023-04-29T04:28:12;15.35;;;6.75;;
67248;SDS011;63247;54.300;18.592;2023-04-29T04:30:38;14.60;;;6.70;;
67248;SDS011;63247;54.300;18.592;2023-04-29T04:33:04;19.50;;;8.27;;
67248;SDS011;63247;54.300;18.592;2023-04-29T04:35:29;16.45;;;6.93;;
67248;SDS011;63247;54.300;18.592;2023-04-29T04:37:55;16.60;;;7.70;;
67248;SDS011;63247;54.300;18.592;2023-04-29T04:40:20;18.42;;;7.85;;
67248;SDS011;63247;54.300;18.592;2023-04-29T04:42:47;16.38;;;7.93;;
67248;SDS011;63247;54.300;18.592;2023-04-29T04:45:12;15.05;;;7.57;;
67248;SDS011;63247;54.300;18.592;2023-04-29T04:47:41;14.80;;;6.78;;
67248;SDS011;63247;54.300;18.592;2023-04-29T04:50:07;17.10;;;7.00;;
67248;SDS011;63247;54.300;18.592;2023-04-29T04:52:33;15.27;;;7.03;;
67248;SDS011;63247;54.300;18.592;2023-04-29T04:54:59;14.38;;;7.03;;
67248;SDS011;63247;54.300;18.592;2023-04-29T04:57:24;21.00;;;7.90;;
67248;SDS011;63247;54.300;18.592;2023-04-29T04:59:50;17.30;;;7.38;;
67248;SDS011;63247;54.300;18.592;2023-04-29T05:02:15;15.95;;;6.82;;
67248;SDS011;63247;54.300;18.592;2023-04-29T05:04:41;15.90;;;7.10;;
67248;SDS011;63247;54.300;18.592;2023-04-29T05:07:06;17.10;;;6.57;;
67248;SDS011;63247;54.300;18.592;2023-04-29T05:09:35;15.75;;;7.25;;
67248;SDS011;63247;54.300;18.592;2023-04-29T05:12:01;14.70;;;6.90;;
67248;SDS011;63247;54.300;18.592;2023-04-29T05:14:26;19.17;;;7.33;;
67248;SDS011;63247;54.300;18.592;2023-04-29T05:16:52;18.90;;;7.37;;
67248;SDS011;63247;54.300;18.592;2023-04-29T05:19:18;19.60;;;7.07;;
67248;SDS011;63247;54.300;18.592;2023-04-29T05:21:44;18.47;;;6.93;;
67248;SDS011;63247;54.300;18.592;2023-04-29T05:24:09;16.00;;;7.50;;
67248;SDS011;63247;54.300;18.592;2023-04-29T05:26:35;15.60;;;7.03;;
67248;SDS011;63247;54.300;18.592;2023-04-29T05:29:00;14.83;;;7.17;;
67248;SDS011;63247;54.300;18.592;2023-04-29T05:31:26;17.13;;;7.85;;
67248;SDS011;63247;54.300;18.592;2023-04-29T05:33:52;15.88;;;7.30;;
67248;SDS011;63247;54.300;18.592;2023-04-29T05:36:17;15.45;;;7.47;;
67248;SDS011;63247;54.300;18.592;2023-04-29T05:38:43;19.60;;;7.95;;
67248;SDS011;63247;54.300;18.592;2023-04-29T05:41:09;15.73;;;7.13;;
67248;SDS011;63247;54.300;18.592;2023-04-29T05:43:35;18.58;;;8.23;;
67248;SDS011;63247;54.300;18.592;2023-04-29T05:46:00;18.33;;;8.33;;
67248;SDS011;63247;54.300;18.592;2023-04-29T05:48:26;17.40;;;8.00;;
67248;SDS011;63247;54.300;18.592;2023-04-29T05:50:52;18.13;;;8.40;;
67248;SDS011;63247;54.300;18.592;2023-04-29T05:53:18;25.67;;;8.48;;
67248;SDS011;63247;54.300;18.592;2023-04-29T05:55:43;17.53;;;8.13;;
67248;SDS011;63247;54.300;18.592;2023-04-29T05:58:10;18.23;;;8.20;;
67248;SDS011;63247;54.300;18.592;2023-04-29T06:00:36;17.60;;;8.55;;
67248;SDS011;63247;54.300;18.592;2023-04-29T06:03:02;16.10;;;8.13;;
67248;SDS011;63247;54.300;18.592;2023-04-29T06:05:27;16.10;;;8.07;;
67248;SDS011;63247;54.300;18.592;2023-04-29T06:07:53;19.47;;;7.50;;
67248;SDS011;63247;54.300;18.592;2023-04-29T06:10:18;18.10;;;8.27;;
67248;SDS011;63247;54.300;18.592;2023-04-29T06:12:44;18.43;;;8.43;;
67248;SDS011;63247;54.300;18.592;2023-04-29T06:15:10;17.55;;;8.30;;
67248;SDS011;63247;54.300;18.592;2023-04-29T06:17:36;17.87;;;9.10;;
67248;SDS011;63247;54.300;18.592;2023-04-29T06:20:01;18.58;;;8.25;;
67248;SDS011;63247;54.300;18.592;2023-04-29T06:22:27;19.85;;;9.25;;
67248;SDS011;63247;54.300;18.592;2023-04-29T06:24:53;15.90;;;8.70;;
67248;SDS011;63247;54.300;18.592;2023-04-29T06:27:18;18.83;;;8.77;;
67248;SDS011;63247;54.300;18.592;2023-04-29T06:29:43;17.70;;;9.00;;
67248;SDS011;63247;54.300;18.592;2023-04-29T06:32:09;19.20;;;9.00;;
67248;SDS011;63247;54.300;18.592;2023-04-29T06:34:34;18.47;;;8.93;;
67248;SDS011;63247;54.300;18.592;2023-04-29T06:37:01;18.65;;;9.50;;
67248;SDS011;63247;54.300;18.592;2023-04-29T06:39:27;22.47;;;9.63;;
67248;SDS011;63247;54.300;18.592;2023-04-29T06:41:56;18.40;;;8.13;;
67248;SDS011;63247;54.300;18.592;2023-04-29T06:44:22;19.15;;;8.68;;
67248;SDS011;63247;54.300;18.592;2023-04-29T06:46:48;18.43;;;9.33;;
67248;SDS011;63247;54.300;18.592;2023-04-29T06:49:13;21.83;;;10.37;;
67248;SDS011;63247;54.300;18.592;2023-04-29T06:51:40;20.80;;;9.90;;
67248;SDS011;63247;54.300;18.592;2023-04-29T06:54:06;21.73;;;10.70;;
67248;SDS011;63247;54.300;18.592;2023-04-29T06:56:32;18.80;;;9.57;;
67248;SDS011;63247;54.300;18.592;2023-04-29T06:58:57;20.08;;;10.20;;
67248;SDS011;63247;54.300;18.592;2023-04-29T07:01:24;19.42;;;10.27;;
67248;SDS011;63247;54.300;18.592;2023-04-29T07:03:49;21.53;;;10.53;;
67248;SDS011;63247;54.300;18.592;2023-04-29T07:06:15;23.40;;;10.00;;
67248;SDS011;63247;54.300;18.592;2023-04-29T07:08:40;17.90;;;9.93;;
67248;SDS011;63247;54.300;18.592;2023-04-29T07:11:06;22.57;;;11.37;;
67248;SDS011;63247;54.300;18.592;2023-04-29T07:13:31;21.63;;;11.68;;
67248;SDS011;63247;54.300;18.592;2023-04-29T07:15:57;21.23;;;10.90;;
67248;SDS011;63247;54.300;18.592;2023-04-29T07:18:22;22.60;;;11.30;;
67248;SDS011;63247;54.300;18.592;2023-04-29T07:20:48;23.20;;;10.23;;
67248;SDS011;63247;54.300;18.592;2023-04-29T07:23:15;22.05;;;11.00;;
67248;SDS011;63247;54.300;18.592;2023-04-29T07:25:40;21.33;;;10.83;;
67248;SDS011;63247;54.300;18.592;2023-04-29T07:28:06;18.95;;;10.15;;
67248;SDS011;63247;54.300;18.592;2023-04-29T07:30:33;20.63;;;11.03;;
67248;SDS011;63247;54.300;18.592;2023-04-29T07:32:58;20.35;;;10.27;;
67248;SDS011;63247;54.300;18.592;2023-04-29T07:35:27;18.80;;;11.20;;
67248;SDS011;63247;54.300;18.592;2023-04-29T07:37:52;20.02;;;11.52;;
67248;SDS011;63247;54.300;18.592;2023-04-29T07:40:18;22.13;;;11.75;;
67248;SDS011;63247;54.300;18.592;2023-04-29T07:42:43;20.33;;;11.97;;
67248;SDS011;63247;54.300;18.592;2023-04-29T07:45:09;19.77;;;11.53;;
67248;SDS011;63247;54.300;18.592;2023-04-29T07:47:35;19.90;;;12.40;;
67248;SDS011;63247;54.300;18.592;2023-04-29T07:50:01;19.50;;;11.37;;
67248;SDS011;63247;54.300;18.592;2023-04-29T07:52:27;24.35;;;11.88;;
67248;SDS011;63247;54.300;18.592;2023-04-29T07:54:52;21.73;;;11.13;;
67248;SDS011;63247;54.300;18.592;2023-04-29T07:57:20;20.52;;;11.82;;
67248;SDS011;63247;54.300;18.592;2023-04-29T07:59:45;18.80;;;10.60;;
67248;SDS011;63247;54.300;18.592;2023-04-29T08:02:11;22.17;;;11.48;;
67248;SDS011;63247;54.300;18.592;2023-04-29T08:04:38;22.30;;;11.63;;
67248;SDS011;63247;54.300;18.592;2023-04-29T08:07:05;21.13;;;12.23;;
67248;SDS011;63247;54.300;18.592;2023-04-29T08:09:30;19.20;;;12.50;;
67248;SDS011;63247;54.300;18.592;2023-04-29T08:11:56;22.10;;;12.23;;
67248;SDS011;63247;54.300;18.592;2023-04-29T08:14:21;22.07;;;12.67;;
67248;SDS011;63247;54.300;18.592;2023-04-29T08:16:47;24.77;;;12.47;;
67248;SDS011;63247;54.300;18.592;2023-04-29T08:19:12;22.53;;;12.40;;
67248;SDS011;63247;54.300;18.592;2023-04-29T08:21:37;21.88;;;12.88;;
67248;SDS011;63247;54.300;18.592;2023-04-29T08:24:03;21.43;;;12.83;;
67248;SDS011;63247;54.300;18.592;2023-04-29T08:26:29;22.38;;;13.05;;
67248;SDS011;63247;54.300;18.592;2023-04-29T08:28:55;23.13;;;12.33;;
67248;SDS011;63247;54.300;18.592;2023-04-29T08:31:20;25.20;;;13.87;;
67248;SDS011;63247;54.300;18.592;2023-04-29T08:33:46;23.77;;;13.18;;
67248;SDS011;63247;54.300;18.592;2023-04-29T08:36:12;19.58;;;13.18;;
67248;SDS011;63247;54.300;18.592;2023-04-29T08:38:38;23.20;;;13.07;;
67248;SDS011;63247;54.300;18.592;2023-04-29T08:41:06;24.75;;;13.13;;
67248;SDS011;63247;54.300;18.592;2023-04-29T08:43:33;23.30;;;12.95;;
67248;SDS011;63247;54.300;18.592;2023-04-29T08:46:01;25.00;;;13.35;;
67248;SDS011;63247;54.300;18.592;2023-04-29T08:48:28;24.23;;;12.07;;
67248;SDS011;63247;54.300;18.592;2023-04-29T08:50:54;24.85;;;13.88;;
67248;SDS011;63247;54.300;18.592;2023-04-29T08:53:22;25.83;;;12.87;;
67248;SDS011;63247;54.300;18.592;2023-04-29T08:55:47;27.10;;;13.98;;
67248;SDS011;63247;54.300;18.592;2023-04-29T08:58:13;25.70;;;14.13;;
67248;SDS011;63247;54.300;18.592;2023-04-29T09:00:43;24.25;;;13.18;;
67248;SDS011;63247;54.300;18.592;2023-04-29T09:05:56;24.37;;;14.03;;
67248;SDS011;63247;54.300;18.592;2023-04-29T09:08:24;26.23;;;14.07;;
67248;SDS011;63247;54.300;18.592;2023-04-29T09:10:50;24.50;;;13.00;;
67248;SDS011;63247;54.300;18.592;2023-04-29T09:13:26;26.13;;;13.80;;
67248;SDS011;63247;54.300;18.592;2023-04-29T09:15:55;25.55;;;13.10;;
67248;SDS011;63247;54.300;18.592;2023-04-29T09:21:14;24.23;;;13.57;;
67248;SDS011;63247;54.300;18.592;2023-04-29T09:23:40;26.85;;;17.15;;
67248;SDS011;63247;54.300;18.592;2023-04-29T09:26:06;26.83;;;14.83;;
67248;SDS011;63247;54.300;18.592;2023-04-29T09:28:31;25.88;;;13.45;;
67248;SDS011;63247;54.300;18.592;2023-04-29T09:30:57;24.83;;;13.23;;
67248;SDS011;63247;54.300;18.592;2023-04-29T09:33:23;34.10;;;15.35;;
67248;SDS011;63247;54.300;18.592;2023-04-29T09:35:52;32.07;;;12.73;;
67248;SDS011;63247;54.300;18.592;2023-04-29T09:38:18;29.45;;;13.60;;
67248;SDS011;63247;54.300;18.592;2023-04-29T09:40:43;27.60;;;13.23;;
67248;SDS011;63247;54.300;18.592;2023-04-29T09:43:12;29.30;;;15.50;;
67248;SDS011;63247;54.300;18.592;2023-04-29T09:45:42;29.92;;;15.88;;
67248;SDS011;63247;54.300;18.592;2023-04-29T09:48:10;30.95;;;15.02;;
67248;SDS011;63247;54.300;18.592;2023-04-29T09:50:36;26.83;;;15.10;;
67248;SDS011;63247;54.300;18.592;2023-04-29T09:53:08;25.30;;;12.97;;
67248;SDS011;63247;54.300;18.592;2023-04-29T09:55:35;25.95;;;15.43;;
67248;SDS011;63247;54.300;18.592;2023-04-29T09:58:01;26.13;;;14.27;;
67248;SDS011;63247;54.300;18.592;2023-04-29T10:00:30;26.67;;;13.65;;
67248;SDS011;63247;54.300;18.592;2023-04-29T10:02:58;28.75;;;12.85;;
67248;SDS011;63247;54.300;18.592;2023-04-29T10:05:26;25.40;;;14.03;;
67248;SDS011;63247;54.300;18.592;2023-04-29T10:07:53;24.20;;;12.80;;
67248;SDS011;63247;54.300;18.592;2023-04-29T10:10:20;23.52;;;12.20;;
67248;SDS011;63247;54.300;18.592;2023-04-29T10:12:49;24.13;;;12.40;;
67248;SDS011;63247;54.300;18.592;2023-04-29T10:15:38;27.70;;;14.23;;
67248;SDS011;63247;54.300;18.592;2023-04-29T10:18:19;24.80;;;11.47;;
67248;SDS011;63247;54.300;18.592;2023-04-29T10:20:48;25.85;;;12.15;;
67248;SDS011;63247;54.300;18.592;2023-04-29T10:23:15;27.85;;;12.80;;
67248;SDS011;63247;54.300;18.592;2023-04-29T10:25:42;30.13;;;14.15;;
67248;SDS011;63247;54.300;18.592;2023-04-29T10:28:11;31.85;;;15.88;;
67248;SDS011;63247;54.300;18.592;2023-04-29T10:30:41;20.50;;;9.90;;
67248;SDS011;63247;54.300;18.592;2023-04-29T10:33:08;24.25;;;11.90;;
67248;SDS011;63247;54.300;18.592;2023-04-29T10:35:35;26.45;;;14.02;;
67248;SDS011;63247;54.300;18.592;2023-04-29T10:38:02;25.42;;;13.88;;
67248;SDS011;63247;54.300;18.592;2023-04-29T10:40:36;27.15;;;13.90;;
67248;SDS011;63247;54.300;18.592;2023-04-29T10:43:06;26.43;;;13.10;;
67248;SDS011;63247;54.300;18.592;2023-04-29T10:45:32;26.27;;;14.45;;
67248;SDS011;63247;54.300;18.592;2023-04-29T10:53:15;28.38;;;14.60;;
67248;SDS011;63247;54.300;18.592;2023-04-29T10:55:46;26.17;;;13.98;;
67248;SDS011;63247;54.300;18.592;2023-04-29T11:01:14;29.30;;;13.47;;
67248;SDS011;63247;54.300;18.592;2023-04-29T11:04:22;26.83;;;14.50;;
67248;SDS011;63247;54.300;18.592;2023-04-29T11:11:38;30.02;;;14.68;;
67248;SDS011;63247;54.300;18.592;2023-04-29T11:14:07;29.13;;;15.90;;
67248;SDS011;63247;54.300;18.592;2023-04-29T11:16:34;27.35;;;14.57;;
67248;SDS011;63247;54.300;18.592;2023-04-29T11:19:05;28.30;;;15.55;;
67248;SDS011;63247;54.300;18.592;2023-04-29T11:21:32;26.38;;;14.63;;
67248;SDS011;63247;54.300;18.592;2023-04-29T11:23:59;26.75;;;14.20;;
67248;SDS011;63247;54.300;18.592;2023-04-29T11:26:25;23.83;;;13.17;;
67248;SDS011;63247;54.300;18.592;2023-04-29T11:28:50;27.30;;;14.68;;
67248;SDS011;63247;54.300;18.592;2023-04-29T11:31:17;26.65;;;15.27;;
67248;SDS011;63247;54.300;18.592;2023-04-29T11:33:43;18.00;;;10.47;;
67248;SDS011;63247;54.300;18.592;2023-04-29T11:36:09;20.50;;;11.20;;
67248;SDS011;63247;54.300;18.592;2023-04-29T11:38:38;16.92;;;9.25;;
67248;SDS011;63247;54.300;18.592;2023-04-29T11:41:05;13.73;;;7.82;;
67248;SDS011;63247;54.300;18.592;2023-04-29T11:43:30;15.27;;;7.67;;
67248;SDS011;63247;54.300;18.592;2023-04-29T11:45:56;17.33;;;8.33;;
67248;SDS011;63247;54.300;18.592;2023-04-29T11:48:22;17.47;;;8.27;;
67248;SDS011;63247;54.300;18.592;2023-04-29T11:50:50;16.45;;;9.20;;
67248;SDS011;63247;54.300;18.592;2023-04-29T11:53:19;15.25;;;7.97;;
67248;SDS011;63247;54.300;18.592;2023-04-29T11:55:44;12.95;;;7.50;;
67248;SDS011;63247;54.300;18.592;2023-04-29T11:58:10;16.07;;;7.67;;
67248;SDS011;63247;54.300;18.592;2023-04-29T12:00:36;15.02;;;8.30;;
67248;SDS011;63247;54.300;18.592;2023-04-29T12:03:15;19.87;;;8.80;;
67248;SDS011;63247;54.300;18.592;2023-04-29T12:05:49;18.00;;;9.35;;
67248;SDS011;63247;54.300;18.592;2023-04-29T12:08:22;22.42;;;10.93;;
67248;SDS011;63247;54.300;18.592;2023-04-29T12:10:49;19.95;;;9.52;;
67248;SDS011;63247;54.300;18.592;2023-04-29T12:13:16;19.88;;;9.82;;
67248;SDS011;63247;54.300;18.592;2023-04-29T12:15:43;25.00;;;12.60;;
67248;SDS011;63247;54.300;18.592;2023-04-29T12:18:10;18.73;;;9.98;;
67248;SDS011;63247;54.300;18.592;2023-04-29T12:20:36;16.90;;;8.15;;
67248;SDS011;63247;54.300;18.592;2023-04-29T12:23:10;17.27;;;8.75;;
67248;SDS011;63247;54.300;18.592;2023-04-29T12:25:39;14.90;;;7.72;;
67248;SDS011;63247;54.300;18.592;2023-04-29T12:28:10;18.07;;;9.40;;
67248;SDS011;63247;54.300;18.592;2023-04-29T12:30:37;19.60;;;9.23;;
67248;SDS011;63247;54.300;18.592;2023-04-29T12:33:02;19.92;;;8.38;;
67248;SDS011;63247;54.300;18.592;2023-04-29T12:35:28;16.70;;;9.83;;
67248;SDS011;63247;54.300;18.592;2023-04-29T12:37:53;17.50;;;9.50;;
67248;SDS011;63247;54.300;18.592;2023-04-29T12:40:18;16.97;;;9.43;;
67248;SDS011;63247;54.300;18.592;2023-04-29T12:42:44;17.02;;;8.93;;
67248;SDS011;63247;54.300;18.592;2023-04-29T12:47:57;21.60;;;10.50;;
67248;SDS011;63247;54.300;18.592;2023-04-29T12:50:29;20.50;;;10.40;;
67248;SDS011;63247;54.300;18.592;2023-04-29T12:52:59;20.02;;;10.52;;
67248;SDS011;63247;54.300;18.592;2023-04-29T12:55:26;18.63;;;11.55;;
67248;SDS011;63247;54.300;18.592;2023-04-29T12:57:51;19.17;;;10.47;;
67248;SDS011;63247;54.300;18.592;2023-04-29T13:00:17;20.30;;;10.70;;
67248;SDS011;63247;54.300;18.592;2023-04-29T13:02:44;22.77;;;10.03;;
67248;SDS011;63247;54.300;18.592;2023-04-29T13:05:10;18.48;;;10.27;;
67248;SDS011;63247;54.300;18.592;2023-04-29T13:07:36;27.92;;;12.60;;
67248;SDS011;63247;54.300;18.592;2023-04-29T13:10:02;18.73;;;10.20;;
67248;SDS011;63247;54.300;18.592;2023-04-29T13:12:30;19.50;;;10.45;;
67248;SDS011;63247;54.300;18.592;2023-04-29T13:14:56;19.92;;;10.52;;
67248;SDS011;63247;54.300;18.592;2023-04-29T13:17:21;22.77;;;10.57;;
67248;SDS011;63247;54.300;18.592;2023-04-29T13:19:47;20.50;;;10.57;;
67248;SDS011;63247;54.300;18.592;2023-04-29T13:22:12;21.37;;;11.17;;
67248;SDS011;63247;54.300;18.592;2023-04-29T13:24:37;19.48;;;9.77;;
67248;SDS011;63247;54.300;18.592;2023-04-29T13:27:03;20.08;;;11.13;;
67248;SDS011;63247;54.300;18.592;2023-04-29T13:29:28;21.30;;;11.30;;
67248;SDS011;63247;54.300;18.592;2023-04-29T13:31:54;22.83;;;10.73;;
67248;SDS011;63247;54.300;18.592;2023-04-29T13:34:20;21.67;;;11.05;;
67248;SDS011;63247;54.300;18.592;2023-04-29T13:36:45;20.30;;;11.13;;
67248;SDS011;63247;54.300;18.592;2023-04-29T13:39:11;21.80;;;11.23;;
67248;SDS011;63247;54.300;18.592;2023-04-29T13:41:36;31.67;;;13.13;;
67248;SDS011;63247;54.300;18.592;2023-04-29T13:44:02;21.87;;;11.30;;
67248;SDS011;63247;54.300;18.592;2023-04-29T13:46:27;26.27;;;12.40;;
67248;SDS011;63247;54.300;18.592;2023-04-29T13:48:53;22.50;;;12.10;;
67248;SDS011;63247;54.300;18.592;2023-04-29T13:51:18;23.30;;;11.73;;
67248;SDS011;63247;54.300;18.592;2023-04-29T13:53:44;20.43;;;11.10;;
67248;SDS011;63247;54.300;18.592;2023-04-29T13:56:09;22.08;;;11.43;;
67248;SDS011;63247;54.300;18.592;2023-04-29T13:58:35;20.40;;;11.10;;
67248;SDS011;63247;54.300;18.592;2023-04-29T14:01:00;26.13;;;12.27;;
67248;SDS011;63247;54.300;18.592;2023-04-29T14:03:26;22.42;;;12.23;;
67248;SDS011;63247;54.300;18.592;2023-04-29T14:05:52;23.93;;;11.20;;
67248;SDS011;63247;54.300;18.592;2023-04-29T14:08:17;24.13;;;11.65;;
67248;SDS011;63247;54.300;18.592;2023-04-29T14:10:43;25.33;;;12.57;;
67248;SDS011;63247;54.300;18.592;2023-04-29T14:13:08;27.90;;;13.77;;
67248;SDS011;63247;54.300;18.592;2023-04-29T14:15:33;29.03;;;15.07;;
67248;SDS011;63247;54.300;18.592;2023-04-29T14:17:59;28.25;;;13.68;;
67248;SDS011;63247;54.300;18.592;2023-04-29T14:20:25;26.50;;;13.63;;
67248;SDS011;63247;54.300;18.592;2023-04-29T14:22:50;24.73;;;12.47;;
67248;SDS011;63247;54.300;18.592;2023-04-29T14:25:16;27.55;;;13.52;;
67248;SDS011;63247;54.300;18.592;2023-04-29T14:27:41;22.60;;;12.07;;
67248;SDS011;63247;54.300;18.592;2023-04-29T14:30:07;31.73;;;14.13;;
67248;SDS011;63247;54.300;18.592;2023-04-29T14:32:33;23.00;;;12.25;;
67248;SDS011;63247;54.300;18.592;2023-04-29T14:34:58;33.10;;;14.00;;
67248;SDS011;63247;54.300;18.592;2023-04-29T14:37:23;26.93;;;14.30;;
67248;SDS011;63247;54.300;18.592;2023-04-29T14:39:49;27.83;;;14.50;;
67248;SDS011;63247;54.300;18.592;2023-04-29T14:42:14;28.00;;;14.70;;
67248;SDS011;63247;54.300;18.592;2023-04-29T14:44:42;24.53;;;12.93;;